Time;durP1;ratioP1;P1;durP2;ratioP2;P2;SDS_P1;SDS_P2;PMS_P1;PMS_P2;Temp;Humidity;BMP_temperature;BMP_pressure;BME280_temperature;BME280_humidity;BME280_pressure;Samples;Min_cycle;Max_cycle;Signal;HPM_P1;HPM_P2
2021/06/27 00:00:03;;;;;;;3.07;2.87;;;19.10;99.90;;;;;;4881969;29;20560;-78
2021/06/27 00:02:34;;;;;;;2.70;2.50;;;19.00;99.90;;;;;;4907853;29;20404;-78
2021/06/27 00:04:59;;;;;;;3.08;2.88;;;19.00;99.90;;;;;;4877755;29;20410;-80
2021/06/27 00:07:25;;;;;;;3.30;3.00;;;19.00;99.90;;;;;;4913131;29;20766;-79
2021/06/27 00:09:51;;;;;;;3.33;2.92;;;19.00;99.90;;;;;;4873176;29;20830;-81
2021/06/27 00:12:16;;;;;;;2.90;2.70;;;18.90;99.90;;;;;;4893517;29;20433;-77
2021/06/27 00:14:42;;;;;;;3.20;2.90;;;18.90;99.90;;;;;;4893967;29;20415;-85
2021/06/27 00:17:07;;;;;;;3.08;2.88;;;18.90;99.90;;;;;;4930395;29;20412;-84
2021/06/27 00:19:33;;;;;;;2.90;2.70;;;18.80;99.90;;;;;;4918520;29;20396;-85
2021/06/27 00:21:59;;;;;;;3.03;2.83;;;18.80;99.90;;;;;;4908883;29;20411;-78
2021/06/27 00:24:24;;;;;;;3.38;3.08;;;18.70;99.90;;;;;;4920158;29;20480;-78
2021/06/27 00:26:50;;;;;;;4.00;3.00;;;18.80;99.90;;;;;;4889407;29;20409;-76
2021/06/27 00:29:16;;;;;;;3.60;3.30;;;18.70;99.90;;;;;;4897942;29;20410;-77
2021/06/27 00:31:41;;;;;;;3.00;2.80;;;18.70;99.90;;;;;;4894584;29;20410;-76
2021/06/27 00:34:07;;;;;;;3.63;3.27;;;18.60;99.90;;;;;;4894483;29;20412;-80
2021/06/27 00:36:33;;;;;;;2.83;2.63;;;18.50;99.90;;;;;;4905900;29;20405;-76
2021/06/27 00:38:58;;;;;;;3.03;2.80;;;18.50;99.90;;;;;;4891455;29;20453;-77
2021/06/27 00:41:24;;;;;;;7.70;7.00;;;18.40;99.90;;;;;;4910008;29;20402;-79
2021/06/27 00:43:50;;;;;;;3.85;3.55;;;18.40;99.90;;;;;;4881199;29;20474;-76
2021/06/27 00:46:16;;;;;;;3.30;3.05;;;18.30;99.90;;;;;;4919646;29;20401;-78
2021/06/27 00:48:42;;;;;;;3.40;3.10;;;18.30;99.90;;;;;;4907472;29;21508;-77
2021/06/27 00:51:07;;;;;;;3.20;3.00;;;18.30;99.90;;;;;;4880436;29;20439;-80
2021/06/27 00:53:33;;;;;;;3.37;2.87;;;18.20;99.90;;;;;;4906760;29;20404;-76
2021/06/27 00:55:59;;;;;;;3.10;2.90;;;18.20;99.90;;;;;;4896122;29;20462;-77
2021/06/27 00:58:32;;;;;;;2.75;2.55;;;18.10;99.90;;;;;;4880643;29;20418;-83
2021/06/27 01:00:59;;;;;;;3.17;2.97;;;18.10;99.90;;;;;;4923609;29;20455;-77
2021/06/27 01:03:24;;;;;;;2.83;2.63;;;18.00;99.90;;;;;;4914915;29;20520;-76
2021/06/27 01:05:50;;;;;;;2.97;2.78;;;18.00;99.90;;;;;;4876819;29;20500;-77
2021/06/27 01:08:17;;;;;;;3.90;3.10;;;17.90;99.90;;;;;;4877982;29;20405;-77
2021/06/27 01:10:42;;;;;;;3.10;2.90;;;17.90;99.90;;;;;;4878061;29;20425;-75
2021/06/27 01:13:08;;;;;;;2.95;2.75;;;17.80;99.90;;;;;;4912206;29;20387;-77
2021/06/27 01:15:34;;;;;;;3.80;3.40;;;17.80;99.90;;;;;;4909953;29;20837;-76
2021/06/27 01:18:00;;;;;;;3.30;3.00;;;17.70;99.90;;;;;;4898381;29;20416;-76
2021/06/27 01:20:31;;;;;;;3.22;3.00;;;17.70;99.90;;;;;;4894201;29;20399;-77
2021/06/27 01:22:58;;;;;;;2.97;2.75;;;17.70;99.90;;;;;;4899627;29;20391;-77
2021/06/27 01:25:29;;;;;;;4.00;3.40;;;17.70;99.90;;;;;;4898965;29;20413;-78
2021/06/27 01:27:54;;;;;;;3.40;3.00;;;17.50;99.90;;;;;;4894560;29;20899;-78
2021/06/27 01:30:21;;;;;;;3.22;2.97;;;17.50;99.90;;;;;;4895053;29;20399;-76
2021/06/27 01:32:47;;;;;;;3.33;3.03;;;17.40;99.90;;;;;;4910045;29;20430;-76
2021/06/27 01:35:15;;;;;;;3.45;3.17;;;17.40;99.90;;;;;;4892411;29;20480;-76
2021/06/27 01:37:41;;;;;;;4.22;3.42;;;17.30;99.90;;;;;;4878470;29;20420;-76
2021/06/27 01:40:07;;;;;;;3.63;3.33;;;17.30;99.90;;;;;;4896133;29;20438;-76
2021/06/27 01:42:33;;;;;;;3.97;3.67;;;17.20;99.90;;;;;;4895297;29;21054;-79
2021/06/27 01:45:00;;;;;;;4.17;3.87;;;17.20;99.90;;;;;;4916120;29;20418;-78
2021/06/27 01:47:27;;;;;;;3.77;3.47;;;17.10;99.90;;;;;;4886836;29;20940;-80
2021/06/27 01:49:52;;;;;;;4.97;3.75;;;17.10;99.90;;;;;;4897109;29;20409;-78
2021/06/27 01:52:18;;;;;;;3.55;3.15;;;17.00;99.90;;;;;;4882277;29;20493;-77
2021/06/27 01:54:44;;;;;;;3.85;3.55;;;17.00;99.90;;;;;;4899977;29;20404;-77
2021/06/27 01:57:09;;;;;;;3.70;3.40;;;16.90;99.90;;;;;;4900789;29;20409;-76
2021/06/27 01:59:35;;;;;;;4.18;3.80;;;16.90;99.90;;;;;;4885660;29;20421;-77
2021/06/27 02:02:01;;;;;;;6.60;3.60;;;16.80;99.90;;;;;;4921315;29;21066;-82
2021/06/27 02:04:26;;;;;;;3.97;3.58;;;16.80;99.90;;;;;;4880445;29;21147;-76
2021/06/27 02:06:52;;;;;;;4.10;3.73;;;16.80;99.90;;;;;;4901514;29;20763;-78
2021/06/27 02:09:18;;;;;;;4.00;3.60;;;16.70;99.90;;;;;;4899335;29;20410;-76
2021/06/27 02:11:43;;;;;;;3.50;3.20;;;16.60;99.90;;;;;;4894664;29;20413;-77
2021/06/27 02:14:10;;;;;;;3.87;3.57;;;16.60;99.90;;;;;;4886586;29;20393;-78
2021/06/27 02:16:35;;;;;;;3.50;3.20;;;16.60;99.90;;;;;;4896559;29;20489;-77
2021/06/27 02:19:01;;;;;;;3.78;3.38;;;16.50;99.90;;;;;;4899329;29;20575;-76
2021/06/27 02:21:35;;;;;;;3.80;3.50;;;16.50;99.90;;;;;;4914899;29;20470;-77
2021/06/27 02:24:01;;;;;;;4.35;3.47;;;16.40;99.90;;;;;;4881102;29;20403;-76
2021/06/27 02:26:26;;;;;;;3.58;3.28;;;16.40;99.90;;;;;;4884356;29;20404;-76
2021/06/27 02:28:52;;;;;;;4.63;3.70;;;16.40;99.90;;;;;;4898875;29;20411;-76
2021/06/27 02:31:18;;;;;;;3.80;3.38;;;16.30;99.90;;;;;;4912998;29;20847;-78
2021/06/27 02:33:44;;;;;;;3.47;3.17;;;16.30;99.90;;;;;;4908273;29;20423;-78
2021/06/27 02:36:09;;;;;;;4.00;3.70;;;16.20;99.90;;;;;;4879877;29;20519;-77
2021/06/27 02:38:35;;;;;;;3.58;3.28;;;16.20;99.90;;;;;;4882094;29;20403;-78
2021/06/27 02:41:01;;;;;;;3.78;3.47;;;16.10;99.90;;;;;;4883877;29;20407;-76
2021/06/27 02:43:27;;;;;;;4.30;3.90;;;16.10;99.90;;;;;;4879062;29;20815;-80
2021/06/27 02:45:53;;;;;;;3.65;3.35;;;16.00;99.90;;;;;;4910537;29;20936;-76
2021/06/27 02:48:18;;;;;;;3.80;3.50;;;16.00;99.90;;;;;;4898120;29;20495;-79
2021/06/27 02:50:44;;;;;;;3.97;3.63;;;15.90;99.90;;;;;;4882477;29;20431;-77
2021/06/27 02:53:10;;;;;;;4.20;3.80;;;15.90;99.90;;;;;;4891590;29;20403;-76
2021/06/27 02:55:35;;;;;;;4.10;3.70;;;15.80;99.90;;;;;;4902405;29;20423;-76
2021/06/27 02:58:01;;;;;;;4.17;3.77;;;15.90;99.90;;;;;;4913420;29;20394;-76
2021/06/27 03:00:29;;;;;;;4.20;3.80;;;15.80;99.90;;;;;;4899608;29;20390;-78
2021/06/27 03:02:55;;;;;;;4.20;3.80;;;15.80;99.90;;;;;;4913619;29;20777;-76
2021/06/27 03:05:20;;;;;;;4.35;3.95;;;15.70;99.90;;;;;;4893325;29;22234;-75
2021/06/27 03:07:46;;;;;;;3.80;3.50;;;15.70;99.90;;;;;;4897596;29;20400;-76
2021/06/27 03:10:14;;;;;;;3.63;3.33;;;15.70;99.90;;;;;;4914443;29;20935;-77
2021/06/27 03:12:47;;;;;;;4.40;4.00;;;15.70;99.90;;;;;;4911781;29;20412;-80
2021/06/27 03:15:14;;;;;;;4.07;3.78;;;15.70;99.90;;;;;;4882562;29;20405;-76
2021/06/27 03:17:39;;;;;;;5.45;3.88;;;15.70;99.90;;;;;;4889298;29;20476;-78
2021/06/27 03:20:06;;;;;;;3.80;3.50;;;15.70;99.90;;;;;;4888794;29;20416;-76
2021/06/27 03:22:32;;;;;;;4.07;3.67;;;15.60;99.90;;;;;;4897209;29;20486;-77
2021/06/27 03:24:57;;;;;;;4.07;3.77;;;15.70;99.90;;;;;;4886776;29;20395;-82
2021/06/27 03:27:24;;;;;;;4.30;3.90;;;15.60;99.90;;;;;;4886088;29;20414;-76
2021/06/27 03:29:50;;;;;;;4.35;3.95;;;15.60;99.90;;;;;;4897416;29;20445;-83
2021/06/27 03:32:15;;;;;;;4.43;3.72;;;15.70;99.90;;;;;;4903239;29;20474;-75
2021/06/27 03:34:41;;;;;;;4.10;3.80;;;15.70;99.90;;;;;;4893210;29;20472;-76
2021/06/27 03:37:07;;;;;;;4.40;4.07;;;15.70;99.90;;;;;;4907979;29;20415;-77
2021/06/27 03:39:32;;;;;;;4.22;3.92;;;15.70;99.90;;;;;;4914206;29;20419;-76
2021/06/27 03:41:58;;;;;;;4.33;3.93;;;15.70;99.90;;;;;;4911546;29;20399;-79
2021/06/27 03:44:25;;;;;;;4.43;4.03;;;15.70;99.90;;;;;;4897334;29;20404;-77
2021/06/27 03:46:50;;;;;;;3.40;3.20;;;15.80;99.90;;;;;;4915808;29;20775;-79
2021/06/27 03:49:16;;;;;;;4.28;3.90;;;15.80;99.90;;;;;;4897494;29;20404;-80
2021/06/27 03:51:42;;;;;;;4.10;3.80;;;15.80;99.90;;;;;;4896590;29;20419;-79
2021/06/27 03:54:08;;;;;;;3.95;3.65;;;15.90;99.90;;;;;;4888869;29;20420;-78
2021/06/27 03:56:33;;;;;;;4.13;3.83;;;16.00;99.90;;;;;;4893867;29;20425;-76
2021/06/27 03:58:59;;;;;;;4.28;3.88;;;16.00;99.90;;;;;;4901218;29;20398;-78
2021/06/27 04:01:25;;;;;;;4.20;3.87;;;16.10;99.90;;;;;;4898364;29;20394;-81
2021/06/27 04:03:50;;;;;;;4.45;3.92;;;16.20;99.90;;;;;;4931786;29;20411;-76
2021/06/27 04:06:16;;;;;;;4.50;4.05;;;16.30;99.90;;;;;;4882246;29;20407;-76
2021/06/27 04:08:42;;;;;;;3.93;3.60;;;16.40;99.90;;;;;;4880681;29;20395;-78
2021/06/27 04:11:07;;;;;;;4.32;4.03;;;16.40;99.90;;;;;;4896474;29;20408;-76
2021/06/27 04:13:34;;;;;;;4.93;4.43;;;16.50;99.90;;;;;;4881777;29;20920;-78
2021/06/27 04:16:00;;;;;;;4.40;4.00;;;16.60;99.90;;;;;;4894615;29;20790;-78
2021/06/27 04:18:25;;;;;;;4.50;4.10;;;16.70;99.90;;;;;;4893981;29;20490;-78
2021/06/27 04:20:54;;;;;;;4.97;4.50;;;16.80;99.90;;;;;;4894329;29;21006;-78
2021/06/27 04:23:20;;;;;;;4.43;4.03;;;16.90;99.90;;;;;;4912102;29;20412;-79
2021/06/27 04:25:46;;;;;;;3.97;3.67;;;17.00;99.90;;;;;;4887737;29;20905;-77
2021/06/27 04:28:11;;;;;;;4.70;4.30;;;17.10;99.90;;;;;;4919767;29;20427;-76
2021/06/27 04:30:38;;;;;;;4.80;4.40;;;17.20;99.90;;;;;;4896983;29;20419;-79
2021/06/27 04:33:04;;;;;;;4.35;4.03;;;17.30;99.90;;;;;;4911712;29;20909;-80
2021/06/27 04:35:33;;;;;;;5.63;4.32;;;17.40;99.90;;;;;;4888024;29;20401;-81
2021/06/27 04:37:58;;;;;;;3.95;3.65;;;17.50;99.90;;;;;;4895131;29;20397;-77
2021/06/27 04:40:24;;;;;;;4.03;3.70;;;17.50;99.90;;;;;;4880530;29;20472;-76
2021/06/27 04:42:49;;;;;;;4.22;3.83;;;17.60;99.90;;;;;;4891662;29;20476;-76
2021/06/27 04:45:15;;;;;;;3.97;3.60;;;17.70;99.90;;;;;;4869142;29;20457;-80
2021/06/27 04:47:41;;;;;;;4.03;3.73;;;17.80;99.90;;;;;;4897259;29;20392;-77
2021/06/27 04:50:07;;;;;;;4.03;3.63;;;17.90;99.90;;;;;;4912219;29;20434;-76
2021/06/27 04:52:33;;;;;;;4.30;4.00;;;18.00;99.90;;;;;;4909745;29;20423;-76
2021/06/27 04:54:59;;;;;;;4.25;3.88;;;18.10;99.90;;;;;;4890584;29;20435;-77
2021/06/27 04:57:25;;;;;;;4.47;4.10;;;18.30;99.90;;;;;;4898519;29;20442;-81
2021/06/27 04:59:51;;;;;;;4.28;3.88;;;18.40;99.90;;;;;;4881863;29;20419;-81
2021/06/27 05:02:16;;;;;;;4.60;4.20;;;18.50;99.90;;;;;;4884323;29;20408;-77
2021/06/27 05:04:42;;;;;;;4.25;3.85;;;18.60;99.90;;;;;;4908383;29;20777;-76
2021/06/27 05:07:08;;;;;;;4.00;3.63;;;18.80;99.90;;;;;;4910850;29;20403;-77
2021/06/27 05:09:33;;;;;;;4.60;4.20;;;18.90;99.90;;;;;;4896135;29;20509;-77
2021/06/27 05:11:59;;;;;;;4.63;4.15;;;19.10;99.90;;;;;;4894075;29;20423;-77
2021/06/27 05:14:24;;;;;;;4.63;4.10;;;19.10;99.90;;;;;;4911548;29;20392;-77
2021/06/27 05:16:51;;;;;;;4.80;4.15;;;19.10;99.90;;;;;;4879698;29;20793;-77
2021/06/27 05:19:16;;;;;;;4.33;3.93;;;19.10;99.90;;;;;;4897572;29;20922;-77
2021/06/27 05:21:42;;;;;;;4.60;4.20;;;19.40;99.90;;;;;;4909478;29;20404;-81
2021/06/27 05:24:07;;;;;;;5.03;4.23;;;19.50;99.90;;;;;;4902250;29;20409;-80
2021/06/27 05:26:33;;;;;;;4.53;4.13;;;19.70;99.90;;;;;;4897884;29;20406;-79
2021/06/27 05:28:59;;;;;;;4.45;3.50;;;19.90;99.90;;;;;;4895605;29;20917;-78
2021/06/27 05:31:24;;;;;;;4.23;3.87;;;20.00;99.90;;;;;;4897978;29;20431;-78
2021/06/27 05:33:50;;;;;;;4.13;3.83;;;20.20;99.90;;;;;;4889354;29;20403;-81
2021/06/27 05:36:15;;;;;;;4.47;3.83;;;20.50;99.90;;;;;;4894505;29;20479;-77
2021/06/27 05:38:41;;;;;;;4.20;3.80;;;20.60;99.90;;;;;;4897123;29;20510;-78
2021/06/27 05:41:07;;;;;;;4.60;4.10;;;20.80;99.90;;;;;;4890936;29;20395;-79
2021/06/27 05:43:32;;;;;;;4.07;3.67;;;20.80;99.90;;;;;;4895459;29;20398;-78
2021/06/27 05:45:58;;;;;;;4.37;3.73;;;21.00;99.90;;;;;;4914784;29;20397;-77
2021/06/27 05:48:24;;;;;;;4.35;4.03;;;21.10;99.90;;;;;;4898899;29;20394;-77
2021/06/27 05:50:50;;;;;;;5.23;3.50;;;21.20;99.90;;;;;;4900614;29;20733;-79
2021/06/27 05:53:15;;;;;;;4.37;3.97;;;21.40;99.90;;;;;;4887754;29;20718;-79
2021/06/27 05:55:41;;;;;;;3.70;3.40;;;21.50;99.90;;;;;;4882228;29;20489;-78
2021/06/27 05:58:07;;;;;;;3.97;3.67;;;21.80;99.90;;;;;;4896346;29;20388;-79
2021/06/27 06:00:32;;;;;;;4.90;3.88;;;21.80;99.90;;;;;;4895644;29;20412;-81
2021/06/27 06:02:58;;;;;;;4.47;4.07;;;21.90;99.90;;;;;;4899080;29;20396;-78
2021/06/27 06:05:24;;;;;;;3.97;3.57;;;22.00;99.90;;;;;;4880784;29;20429;-78
2021/06/27 06:07:51;;;;;;;4.07;3.77;;;22.10;99.90;;;;;;4870631;29;20564;-84
2021/06/27 06:10:17;;;;;;;4.47;3.77;;;22.20;99.90;;;;;;4903402;29;21006;-78
2021/06/27 06:12:42;;;;;;;4.10;3.70;;;22.40;99.90;;;;;;4895919;29;20447;-78
2021/06/27 06:15:08;;;;;;;4.07;3.67;;;22.50;99.90;;;;;;4877698;29;20407;-78
2021/06/27 06:17:34;;;;;;;3.92;3.63;;;22.60;99.90;;;;;;4865786;29;20422;-78
2021/06/27 06:20:00;;;;;;;3.53;3.23;;;22.80;99.90;;;;;;4891932;29;20412;-80
2021/06/27 06:22:27;;;;;;;4.53;4.13;;;23.00;99.90;;;;;;4894717;29;20419;-80
2021/06/27 06:24:52;;;;;;;4.38;3.97;;;23.20;99.90;;;;;;4876873;29;20414;-78
2021/06/27 06:27:18;;;;;;;3.77;3.47;;;23.30;99.90;;;;;;4895133;29;20907;-78
2021/06/27 06:29:43;;;;;;;4.10;3.63;;;23.40;99.90;;;;;;4882767;29;20423;-78
2021/06/27 06:32:09;;;;;;;4.13;3.78;;;23.60;99.90;;;;;;4894604;29;20413;-80
2021/06/27 06:34:35;;;;;;;3.70;3.40;;;23.80;99.90;;;;;;4883156;29;20887;-79
2021/06/27 06:37:00;;;;;;;4.00;3.50;;;24.00;99.90;;;;;;4904918;29;20406;-81
2021/06/27 06:39:26;;;;;;;3.35;3.05;;;24.10;99.90;;;;;;4918764;29;20411;-79
2021/06/27 06:41:52;;;;;;;3.80;3.50;;;24.30;99.90;;;;;;4886517;29;20498;-79
2021/06/27 06:44:17;;;;;;;5.77;4.10;;;24.50;99.90;;;;;;4886125;29;20435;-78
2021/06/27 06:46:43;;;;;;;3.83;3.45;;;24.80;99.90;;;;;;4901575;29;20912;-81
2021/06/27 06:49:09;;;;;;;4.63;3.67;;;25.10;99.90;;;;;;4900272;29;20757;-79
2021/06/27 06:51:34;;;;;;;2.80;2.60;;;25.30;99.90;;;;;;4891760;29;20905;-78
2021/06/27 06:54:00;;;;;;;3.57;3.27;;;25.50;99.90;;;;;;4899330;29;20400;-77
2021/06/27 06:56:26;;;;;;;5.28;4.50;;;25.80;99.90;;;;;;4911783;29;20394;-79
2021/06/27 06:58:51;;;;;;;3.55;3.25;;;25.60;99.90;;;;;;4918255;29;20767;-78
2021/06/27 07:01:17;;;;;;;4.70;4.30;;;25.30;99.90;;;;;;4891421;29;20471;-78
2021/06/27 07:03:44;;;;;;;4.03;3.72;;;24.90;99.90;;;;;;4901517;29;20467;-80
2021/06/27 07:06:09;;;;;;;7.30;4.65;;;24.60;99.90;;;;;;4897523;29;20406;-79
2021/06/27 07:08:35;;;;;;;6.47;3.55;;;24.40;99.90;;;;;;4887078;29;20441;-80
2021/06/27 07:11:00;;;;;;;4.57;4.17;;;24.30;99.90;;;;;;4888006;29;20502;-80
2021/06/27 07:13:26;;;;;;;2.77;2.57;;;24.00;99.90;;;;;;4900939;29;20408;-79
2021/06/27 07:15:52;;;;;;;3.67;3.38;;;24.30;99.90;;;;;;4909458;29;20403;-79
2021/06/27 07:18:17;;;;;;;3.10;2.90;;;24.60;99.90;;;;;;4901077;29;20403;-79
2021/06/27 07:20:43;;;;;;;2.90;2.70;;;24.70;99.90;;;;;;4899579;29;20765;-81
2021/06/27 07:23:09;;;;;;;2.47;2.28;;;25.00;99.90;;;;;;4931074;29;20433;-78
2021/06/27 07:25:34;;;;;;;2.35;2.15;;;25.40;99.90;;;;;;4889068;29;20393;-79
2021/06/27 07:28:00;;;;;;;2.87;2.67;;;25.70;99.90;;;;;;4896343;29;20404;-80
2021/06/27 07:30:26;;;;;;;2.70;2.50;;;26.10;99.90;;;;;;4885442;29;20390;-78
2021/06/27 07:32:51;;;;;;;2.90;2.70;;;26.40;99.90;;;;;;4916086;29;20427;-80
2021/06/27 07:35:17;;;;;;;3.83;2.93;;;26.20;99.90;;;;;;4900733;29;20463;-80
2021/06/27 07:37:44;;;;;;;2.40;2.20;;;26.10;99.90;;;;;;4884196;29;20504;-81
2021/06/27 07:40:17;;;;;;;3.83;3.10;;;26.30;99.90;;;;;;4898381;29;20437;-81
2021/06/27 07:43:28;;;;;;;2.35;2.15;;;26.40;99.90;;;;;;4913908;29;20398;-81
2021/06/27 07:46:06;;;;;;;2.55;2.35;;;26.80;99.90;;;;;;4904052;29;20408;-82
2021/06/27 07:48:38;;;;;;;2.80;2.60;;;27.10;99.90;;;;;;4923834;29;20413;-86
2021/06/27 07:51:05;;;;;;;2.55;2.35;;;27.30;99.90;;;;;;4924241;29;20416;-83
2021/06/27 07:53:30;;;;;;;2.77;2.57;;;27.50;99.90;;;;;;4912516;29;20759;-82
2021/06/27 07:55:56;;;;;;;2.75;2.53;;;27.80;99.90;;;;;;4895301;29;20417;-79
2021/06/27 07:58:22;;;;;;;2.80;2.30;;;28.10;99.90;;;;;;4910426;29;20455;-77
2021/06/27 08:00:47;;;;;;;2.17;2.07;;;28.30;99.90;;;;;;4890409;29;20935;-79
2021/06/27 08:03:13;;;;;;;2.50;2.30;;;28.50;99.90;;;;;;4923779;29;20896;-81
2021/06/27 08:05:39;;;;;;;2.23;2.10;;;28.70;99.90;;;;;;4884634;29;20672;-79
2021/06/27 08:08:04;;;;;;;2.45;2.25;;;28.80;99.90;;;;;;4892294;29;20781;-80
2021/06/27 08:10:30;;;;;;;2.50;2.40;;;28.80;99.90;;;;;;4898463;29;21040;-79
2021/06/27 08:12:56;;;;;;;2.23;2.10;;;29.00;99.90;;;;;;4901777;29;20415;-79
2021/06/27 08:15:21;;;;;;;2.53;2.33;;;29.30;98.00;;;;;;4912923;29;20402;-78
2021/06/27 08:17:51;;;;;;;2.15;2.05;;;29.10;97.10;;;;;;4892031;29;20394;-80
2021/06/27 08:20:17;;;;;;;2.63;2.42;;;29.10;98.50;;;;;;4932664;29;20477;-78
2021/06/27 08:22:43;;;;;;;2.00;1.85;;;29.10;97.30;;;;;;4887901;29;20414;-78
2021/06/27 08:25:09;;;;;;;2.00;1.90;;;29.20;96.40;;;;;;4891688;29;20405;-78
2021/06/27 08:27:35;;;;;;;2.17;2.07;;;29.60;96.90;;;;;;4863123;29;20401;-77
2021/06/27 08:30:04;;;;;;;2.65;2.15;;;29.40;92.80;;;;;;4875962;29;20402;-81
2021/06/27 08:32:30;;;;;;;1.92;1.83;;;29.40;93.70;;;;;;4888804;29;20503;-79
2021/06/27 08:34:56;;;;;;;1.83;1.73;;;29.60;93.70;;;;;;4879254;29;20456;-78
2021/06/27 08:37:22;;;;;;;2.35;2.15;;;29.90;93.50;;;;;;4893380;29;20437;-78
2021/06/27 08:39:47;;;;;;;2.40;2.22;;;29.40;91.50;;;;;;4896338;29;20850;-78
2021/06/27 08:42:14;;;;;;;2.00;1.90;;;29.50;93.80;;;;;;4880200;29;20426;-79
2021/06/27 08:44:40;;;;;;;1.80;1.70;;;29.70;93.10;;;;;;4910134;29;20441;-78
2021/06/27 08:47:06;;;;;;;1.95;1.85;;;30.10;89.60;;;;;;4881264;29;20908;-79
2021/06/27 08:49:32;;;;;;;1.90;1.80;;;29.60;82.20;;;;;;4912921;29;20526;-79
2021/06/27 08:51:58;;;;;;;1.80;1.70;;;29.80;90.10;;;;;;4895905;29;20833;-81
2021/06/27 08:54:23;;;;;;;2.13;1.90;;;29.80;89.50;;;;;;4907274;29;20464;-81
2021/06/27 08:56:49;;;;;;;1.90;1.80;;;30.10;89.20;;;;;;4903903;29;20473;-82
2021/06/27 08:59:15;;;;;;;2.00;1.90;;;30.50;88.60;;;;;;4886749;29;20476;-81
2021/06/27 09:01:40;;;;;;;1.90;1.80;;;30.60;83.10;;;;;;4905090;29;20415;-80
2021/06/27 09:04:06;;;;;;;2.00;1.90;;;30.80;85.30;;;;;;4899934;29;20401;-82
2021/06/27 09:06:33;;;;;;;1.80;1.70;;;31.20;87.10;;;;;;4884129;29;20398;-80
2021/06/27 09:09:20;;;;;;;1.92;1.83;;;31.30;83.90;;;;;;4883991;29;20504;-80
2021/06/27 09:12:00;;;;;;;1.83;1.73;;;31.10;81.30;;;;;;4914781;29;20404;-82
2021/06/27 09:14:37;;;;;;;2.90;1.63;;;31.20;80.20;;;;;;4885260;29;20485;-82
2021/06/27 09:17:17;;;;;;;2.10;1.70;;;31.40;80.60;;;;;;4901361;29;20411;-82
2021/06/27 09:19:52;;;;;;;1.65;1.55;;;31.60;76.10;;;;;;4902560;29;20514;-85
2021/06/27 09:22:28;;;;;;;1.60;1.50;;;32.10;78.00;;;;;;4910810;29;20427;-83
2021/06/27 09:25:16;;;;;;;1.90;1.80;;;32.30;71.40;;;;;;4907196;29;20410;-82
2021/06/27 09:27:44;;;;;;;2.30;1.70;;;32.10;74.90;;;;;;4912117;29;27280;-83
2021/06/27 09:30:20;;;;;;;1.90;1.80;;;32.50;74.80;;;;;;4886535;29;20461;-82
2021/06/27 09:33:08;;;;;;;1.38;1.38;;;32.60;73.80;;;;;;4889405;29;20500;-82
2021/06/27 09:35:34;;;;;;;1.60;1.40;;;32.40;73.20;;;;;;4881316;29;20470;-81
2021/06/27 09:38:19;;;;;;;1.80;1.70;;;32.60;73.00;;;;;;4914816;29;20395;-81
2021/06/27 09:40:45;;;;;;;1.63;1.52;;;32.50;69.30;;;;;;4877102;29;20406;-82
2021/06/27 09:43:11;;;;;;;1.50;1.40;;;32.50;70.00;;;;;;4883827;29;20458;-82
2021/06/27 09:45:47;;;;;;;1.55;1.45;;;32.60;68.10;;;;;;4882778;29;20403;-80
2021/06/27 09:48:12;;;;;;;1.77;1.67;;;32.40;69.90;;;;;;4898698;29;20439;-83
2021/06/27 09:50:38;;;;;;;1.50;1.40;;;32.70;67.50;;;;;;4899099;29;20577;-83
2021/06/27 09:53:03;;;;;;;1.80;1.70;;;32.90;69.10;;;;;;4890628;29;20993;-81
2021/06/27 09:55:30;;;;;;;1.90;1.80;;;33.30;69.20;;;;;;4879559;29;20755;-82
2021/06/27 09:58:17;;;;;;;1.67;1.58;;;33.40;67.30;;;;;;4880456;29;20403;-86
2021/06/27 10:00:42;;;;;;;1.42;1.33;;;33.60;65.10;;;;;;4885847;29;21066;-86
2021/06/27 10:03:10;;;;;;;1.20;1.20;;;33.60;64.10;;;;;;4923226;29;20402;-81
2021/06/27 10:05:37;;;;;;;1.40;1.30;;;33.80;63.50;;;;;;4905023;29;20409;-81
2021/06/27 10:08:03;;;;;;;1.30;1.20;;;34.30;65.80;;;;;;4905152;29;20398;-84
2021/06/27 10:10:29;;;;;;;1.33;1.27;;;34.70;61.10;;;;;;4892144;29;20464;-82
2021/06/27 10:12:54;;;;;;;1.30;1.20;;;35.00;58.80;;;;;;4898728;29;20506;-83
2021/06/27 10:15:20;;;;;;;1.73;1.63;;;35.20;60.00;;;;;;4911630;29;20431;-85
2021/06/27 10:17:46;;;;;;;1.27;1.27;;;35.50;61.50;;;;;;4887237;29;20853;-82
2021/06/27 10:20:15;;;;;;;2.90;1.50;;;35.20;56.20;;;;;;4889051;29;21017;-80
2021/06/27 10:22:41;;;;;;;1.53;1.43;;;34.10;59.70;;;;;;4030737;29;10001284;-82
2021/06/27 10:25:12;;;;;;;1.73;1.63;;;33.60;57.30;;;;;;4889652;29;20449;-81
2021/06/27 10:27:38;;;;;;;1.67;1.57;;;33.30;60.30;;;;;;4914159;29;20449;-84
2021/06/27 10:30:05;;;;;;;1.60;1.50;;;33.50;60.50;;;;;;4916990;29;20415;-83
2021/06/27 10:32:31;;;;;;;31.52;23.25;;;34.20;59.50;;;;;;4902374;29;20446;-84
2021/06/27 10:34:58;;;;;;;3.75;3.45;;;34.80;61.50;;;;;;4882251;29;20448;-83
2021/06/27 10:37:37;;;;;;;16.10;12.60;;;34.70;56.70;;;;;;4897342;29;20935;-83
2021/06/27 10:40:10;;;;;;;2.28;2.10;;;34.60;59.50;;;;;;4870638;29;20404;-83
2021/06/27 10:42:50;;;;;;;1.90;1.80;;;34.90;55.50;;;;;;4927350;29;20516;-85
2021/06/27 10:45:20;;;;;;;1.30;1.30;;;35.20;60.30;;;;;;4920434;29;20917;-82
2021/06/27 10:47:46;;;;;;;2.00;1.90;;;35.20;57.20;;;;;;4889766;29;20479;-84
2021/06/27 10:50:12;;;;;;;1.50;1.40;;;35.40;57.20;;;;;;4879663;29;20411;-86
2021/06/27 10:52:55;;;;;;;1.40;1.30;;;35.50;55.90;;;;;;4885671;29;20435;-85
2021/06/27 10:55:47;;;;;;;1.30;1.30;;;34.50;55.40;;;;;;4918499;29;20411;-86
2021/06/27 10:58:18;;;;;;;1.58;1.48;;;34.80;56.20;;;;;;4919373;29;20510;-86
2021/06/27 11:00:56;;;;;;;1.50;1.40;;;35.40;54.30;;;;;;4888321;29;20519;-86
2021/06/27 11:03:41;;;;;;;1.70;1.60;;;35.90;55.20;;;;;;4928319;29;20408;-85
2021/06/27 11:06:33;;;;;;;1.50;1.40;;;36.00;53.50;;;;;;4897705;29;20420;-83
2021/06/27 11:09:05;;;;;;;1.20;1.20;;;36.00;51.20;;;;;;4915671;29;20403;-83
2021/06/27 11:11:31;;;;;;;1.37;1.27;;;35.90;52.10;;;;;;4888433;29;20433;-84
2021/06/27 11:14:20;;;;;;;2.25;2.05;;;35.90;53.90;;;;;;4897634;29;20423;-84
2021/06/27 11:17:01;;;;;;;2.80;2.50;;;35.20;54.30;;;;;;4908064;29;20467;-83
2021/06/27 11:19:29;;;;;;;2.10;1.90;;;35.60;51.80;;;;;;4904425;29;20529;-85
2021/06/27 11:22:14;;;;;;;1.65;1.30;;;36.00;52.00;;;;;;4909379;29;20472;-85
2021/06/27 11:24:40;;;;;;;1.20;1.20;;;36.50;52.40;;;;;;4896185;29;20408;-83
2021/06/27 11:27:06;;;;;;;1.20;1.20;;;36.50;52.20;;;;;;4895877;29;20419;-83
2021/06/27 11:29:31;;;;;;;1.30;1.20;;;36.50;50.70;;;;;;4900880;29;20413;-88
2021/06/27 11:32:09;;;;;;;1.48;1.38;;;35.80;50.30;;;;;;4912614;29;20429;-85
2021/06/27 11:34:36;;;;;;;1.40;1.30;;;35.40;50.50;;;;;;4908876;29;20459;-82
2021/06/27 11:37:16;;;;;;;1.15;1.15;;;35.00;51.20;;;;;;4873843;29;20454;-83
2021/06/27 11:39:46;;;;;;;1.50;1.40;;;34.90;52.90;;;;;;4899644;29;20409;-84
2021/06/27 11:42:23;;;;;;;1.30;1.20;;;34.50;49.80;;;;;;4883281;29;20771;-84
2021/06/27 11:45:09;;;;;;;1.47;1.37;;;34.10;53.30;;;;;;4888101;29;20419;-81
2021/06/27 11:47:43;;;;;;;1.88;1.40;;;34.30;52.50;;;;;;4900745;29;20414;-82
2021/06/27 11:50:28;;;;;;;1.33;1.23;;;34.50;50.70;;;;;;4898101;29;20467;-81
2021/06/27 11:52:56;;;;;;;1.40;1.20;;;34.40;51.80;;;;;;4875337;29;20453;-82
2021/06/27 11:55:29;;;;;;;1.35;1.25;;;34.10;52.60;;;;;;4897688;29;20454;-83
2021/06/27 11:57:54;;;;;;;1.13;1.13;;;34.20;54.30;;;;;;4888714;29;20916;-82
2021/06/27 12:00:20;;;;;;;1.40;1.30;;;34.80;53.90;;;;;;4881354;29;20387;-84
2021/06/27 12:02:46;;;;;;;1.23;1.20;;;35.40;52.30;;;;;;4893686;29;20416;-85
2021/06/27 12:05:14;;;;;;;1.10;1.10;;;35.80;52.40;;;;;;4883803;29;20420;-85
2021/06/27 12:07:41;;;;;;;1.10;1.10;;;36.10;50.90;;;;;;4909265;29;20424;-84
2021/06/27 12:10:19;;;;;;;1.30;1.20;;;36.10;49.30;;;;;;4880534;29;20408;-83
2021/06/27 12:12:46;;;;;;;1.10;1.10;;;35.30;49.70;;;;;;4901889;29;20435;-85
2021/06/27 12:15:15;;;;;;;1.30;1.20;;;35.40;51.90;;;;;;4897647;29;21020;-84
2021/06/27 12:17:44;;;;;;;1.70;1.50;;;35.80;50.50;;;;;;4905483;29;20511;-85
2021/06/27 12:20:12;;;;;;;1.30;1.25;;;35.50;49.30;;;;;;4899456;29;20952;-84
2021/06/27 12:23:00;;;;;;;1.40;1.20;;;35.60;51.50;;;;;;4887850;29;20432;-84
2021/06/27 12:25:30;;;;;;;1.45;1.33;;;36.20;51.10;;;;;;4890236;29;20782;-82
2021/06/27 12:27:59;;;;;;;1.20;1.20;;;36.30;49.50;;;;;;4885725;29;20518;-85
2021/06/27 12:30:51;;;;;;;1.40;1.30;;;36.90;48.90;;;;;;4901764;29;20430;-85
2021/06/27 12:33:31;;;;;;;1.25;1.20;;;37.10;47.60;;;;;;4884905;29;20435;-86
2021/06/27 12:36:11;;;;;;;1.27;1.20;;;37.30;47.90;;;;;;4904547;29;20476;-86
2021/06/27 12:38:39;;;;;;;1.10;1.10;;;37.50;48.40;;;;;;4865513;29;20497;-82
2021/06/27 12:41:05;;;;;;;1.30;1.20;;;37.50;45.20;;;;;;4888299;29;21078;-84
2021/06/27 12:43:31;;;;;;;1.45;1.27;;;37.20;47.30;;;;;;4897154;29;20421;-84
2021/06/27 12:46:19;;;;;;;1.30;1.23;;;36.60;44.90;;;;;;4903194;29;20440;-84
2021/06/27 12:48:50;;;;;;;1.23;1.15;;;36.50;48.70;;;;;;4928473;29;20403;-82